sensor_id;sensor_type;location;lat;lon;timestamp;pressure;altitude;pressure_sealevel;temperature;humidity
72612;BME280;60655;52.182;4.474;2023-09-07T00:01:54;101884.72;;;20.43;88.90
72612;BME280;60655;52.182;4.474;2023-09-07T00:03:55;101878.22;;;20.39;89.14
72612;BME280;60655;52.182;4.474;2023-09-07T00:05:56;101876.59;;;20.38;89.27
72612;BME280;60655;52.182;4.474;2023-09-07T00:07:57;101871.75;;;20.40;89.19
72612;BME280;60655;52.182;4.474;2023-09-07T00:09:59;101875.81;;;20.42;88.46
72612;BME280;60655;52.182;4.474;2023-09-07T00:12:00;101872.22;;;20.37;88.48
72612;BME280;60655;52.182;4.474;2023-09-07T00:14:01;101867.84;;;20.31;88.86
72612;BME280;60655;52.182;4.474;2023-09-07T00:16:03;101867.84;;;20.31;88.81
72612;BME280;60655;52.182;4.474;2023-09-07T00:18:05;101861.31;;;20.27;88.60
72612;BME280;60655;52.182;4.474;2023-09-07T00:20:06;101869.16;;;20.28;88.98
72612;BME280;60655;52.182;4.474;2023-09-07T00:22:17;101862.44;;;20.31;88.66
72612;BME280;60655;52.182;4.474;2023-09-07T00:24:18;101868.97;;;20.35;88.60
72612;BME280;60655;52.182;4.474;2023-09-07T00:26:19;101866.41;;;20.45;88.74
72612;BME280;60655;52.182;4.474;2023-09-07T00:28:20;101860.13;;;20.39;88.95
72612;BME280;60655;52.182;4.474;2023-09-07T00:30:21;101870.44;;;20.42;88.82
72612;BME280;60655;52.182;4.474;2023-09-07T00:32:22;101871.50;;;20.41;88.75
72612;BME280;60655;52.182;4.474;2023-09-07T00:34:23;101866.41;;;20.45;88.54
72612;BME280;60655;52.182;4.474;2023-09-07T00:36:24;101866.66;;;20.43;88.44
72612;BME280;60655;52.182;4.474;2023-09-07T00:38:25;101872.06;;;20.43;88.51
72612;BME280;60655;52.182;4.474;2023-09-07T00:40:26;101876.16;;;20.51;87.97
72612;BME280;60655;52.182;4.474;2023-09-07T00:42:27;101865.88;;;20.48;88.07
72612;BME280;60655;52.182;4.474;2023-09-07T00:44:28;101870.75;;;20.51;87.67
72612;BME280;60655;52.182;4.474;2023-09-07T00:46:29;101857.75;;;20.43;87.51
72612;BME280;60655;52.182;4.474;2023-09-07T00:48:30;101864.00;;;20.48;87.89
72612;BME280;60655;52.182;4.474;2023-09-07T00:50:31;101859.94;;;20.46;87.59
72612;BME280;60655;52.182;4.474;2023-09-07T00:52:33;101866.97;;;20.47;87.42
72612;BME280;60655;52.182;4.474;2023-09-07T00:54:34;101866.66;;;20.43;87.63
72612;BME280;60655;52.182;4.474;2023-09-07T00:56:37;101867.41;;;20.39;88.08
72612;BME280;60655;52.182;4.474;2023-09-07T00:58:38;101858.72;;;20.37;87.97
72612;BME280;60655;52.182;4.474;2023-09-07T01:00:39;101845.22;;;20.37;87.58
72612;BME280;60655;52.182;4.474;2023-09-07T01:02:40;101851.69;;;20.36;87.47
72612;BME280;60655;52.182;4.474;2023-09-07T01:04:45;101852.78;;;20.35;87.42
72612;BME280;60655;52.182;4.474;2023-09-07T01:06:55;101841.06;;;20.24;87.56
72612;BME280;60655;52.182;4.474;2023-09-07T01:09:01;101836.78;;;20.28;87.20
72612;BME280;60655;52.182;4.474;2023-09-07T01:11:18;101849.72;;;20.26;87.40
72612;BME280;60655;52.182;4.474;2023-09-07T01:13:23;101846.75;;;20.28;87.12
72612;BME280;60655;52.182;4.474;2023-09-07T01:15:24;101845.91;;;20.22;87.56
72612;BME280;60655;52.182;4.474;2023-09-07T01:17:26;101846.19;;;20.20;87.68
72612;BME280;60655;52.182;4.474;2023-09-07T01:19:28;101854.72;;;20.12;88.08
72612;BME280;60655;52.182;4.474;2023-09-07T01:21:34;101847.66;;;20.06;88.46
72612;BME280;60655;52.182;4.474;2023-09-07T01:23:37;101848.41;;;20.02;88.56
72612;BME280;60655;52.182;4.474;2023-09-07T01:25:40;101845.41;;;19.98;88.71
72612;BME280;60655;52.182;4.474;2023-09-07T01:27:41;101856.13;;;19.93;89.02
72612;BME280;60655;52.182;4.474;2023-09-07T01:29:42;101846.69;;;19.91;88.98
72612;BME280;60655;52.182;4.474;2023-09-07T01:31:43;101839.13;;;19.93;88.71
72612;BME280;60655;52.182;4.474;2023-09-07T01:33:44;101849.13;;;19.92;88.52
72612;BME280;60655;52.182;4.474;2023-09-07T01:35:46;101832.63;;;19.88;88.55
72612;BME280;60655;52.182;4.474;2023-09-07T01:37:47;101838.59;;;19.91;88.58
72612;BME280;60655;52.182;4.474;2023-09-07T01:39:48;101836.44;;;19.93;88.62
72612;BME280;60655;52.182;4.474;2023-09-07T01:41:50;101836.16;;;19.89;88.91
72612;BME280;60655;52.182;4.474;2023-09-07T01:43:51;101839.91;;;19.88;88.66
72612;BME280;60655;52.182;4.474;2023-09-07T01:45:52;101842.03;;;19.86;88.66
72612;BME280;60655;52.182;4.474;2023-09-07T01:47:53;101843.94;;;19.85;88.66
72612;BME280;60655;52.182;4.474;2023-09-07T01:49:54;101840.66;;;19.83;88.84
72612;BME280;60655;52.182;4.474;2023-09-07T01:51:55;101844.75;;;19.86;88.83
72612;BME280;60655;52.182;4.474;2023-09-07T01:53:56;101843.94;;;19.85;89.16
72612;BME280;60655;52.182;4.474;2023-09-07T01:55:57;101841.47;;;19.84;89.21
72612;BME280;60655;52.182;4.474;2023-09-07T01:58:00;101837.16;;;19.83;89.01
72612;BME280;60655;52.182;4.474;2023-09-07T02:00:01;101840.66;;;19.83;88.81
72612;BME280;60655;52.182;4.474;2023-09-07T02:02:02;101830.31;;;19.75;89.25
72612;BME280;60655;52.182;4.474;2023-09-07T02:04:03;101827.31;;;19.72;89.29
72612;BME280;60655;52.182;4.474;2023-09-07T02:06:04;101843.31;;;19.78;89.25
72612;BME280;60655;52.182;4.474;2023-09-07T02:08:05;101828.56;;;19.64;89.67
72612;BME280;60655;52.182;4.474;2023-09-07T02:10:06;101846.13;;;19.67;89.91
72612;BME280;60655;52.182;4.474;2023-09-07T02:12:07;101844.56;;;19.71;89.83
72612;BME280;60655;52.182;4.474;2023-09-07T02:14:08;101838.09;;;19.72;89.55
72612;BME280;60655;52.182;4.474;2023-09-07T02:16:10;101843.16;;;19.63;89.68
72612;BME280;60655;52.182;4.474;2023-09-07T02:18:11;101844.06;;;19.74;89.28
72612;BME280;60655;52.182;4.474;2023-09-07T02:20:12;101839.16;;;19.71;89.30
72612;BME280;60655;52.182;4.474;2023-09-07T02:22:12;101840.94;;;19.60;89.84
72612;BME280;60655;52.182;4.474;2023-09-07T02:24:13;101835.56;;;19.60;89.69
72612;BME280;60655;52.182;4.474;2023-09-07T02:26:14;101825.78;;;19.54;89.54
72612;BME280;60655;52.182;4.474;2023-09-07T02:28:15;101839.06;;;19.61;89.66
72612;BME280;60655;52.182;4.474;2023-09-07T02:30:16;101836.66;;;19.64;89.86
72612;BME280;60655;52.182;4.474;2023-09-07T02:32:18;101839.56;;;19.58;89.96
72612;BME280;60655;52.182;4.474;2023-09-07T02:34:19;101834.75;;;19.60;89.95
72612;BME280;60655;52.182;4.474;2023-09-07T02:36:20;101832.88;;;19.60;89.86
72612;BME280;60655;52.182;4.474;2023-09-07T02:38:21;101818.09;;;19.46;89.83
72612;BME280;60655;52.182;4.474;2023-09-07T02:40:22;101837.94;;;19.57;89.99
72612;BME280;60655;52.182;4.474;2023-09-07T02:42:24;101840.06;;;19.54;89.97
72612;BME280;60655;52.182;4.474;2023-09-07T02:44:25;101842.56;;;19.61;89.80
72612;BME280;60655;52.182;4.474;2023-09-07T02:46:26;101845.47;;;19.54;90.10
72612;BME280;60655;52.182;4.474;2023-09-07T02:48:27;101840.78;;;19.50;90.33
72612;BME280;60655;52.182;4.474;2023-09-07T02:50:32;101844.06;;;19.52;89.99
72612;BME280;60655;52.182;4.474;2023-09-07T02:52:34;101844.66;;;19.54;89.92
72612;BME280;60655;52.182;4.474;2023-09-07T02:54:35;101835.75;;;19.53;89.74
72612;BME280;60655;52.182;4.474;2023-09-07T02:56:36;101844.41;;;19.55;89.63
72612;BME280;60655;52.182;4.474;2023-09-07T02:58:37;101844.91;;;19.52;90.00
72612;BME280;60655;52.182;4.474;2023-09-07T03:00:42;101848.47;;;19.58;89.57
72612;BME280;60655;52.182;4.474;2023-09-07T03:02:44;101840.56;;;19.51;89.77
72612;BME280;60655;52.182;4.474;2023-09-07T03:04:45;101851.50;;;19.45;90.41
72612;BME280;60655;52.182;4.474;2023-09-07T03:06:46;101849.06;;;19.43;90.40
72612;BME280;60655;52.182;4.474;2023-09-07T03:08:47;101850.59;;;19.39;90.61
72612;BME280;60655;52.182;4.474;2023-09-07T03:10:48;101855.38;;;19.32;91.01
72612;BME280;60655;52.182;4.474;2023-09-07T03:12:49;101848.88;;;19.28;91.27
72612;BME280;60655;52.182;4.474;2023-09-07T03:14:50;101855.88;;;19.29;91.17
72612;BME280;60655;52.182;4.474;2023-09-07T03:16:51;101841.09;;;19.32;90.81
72612;BME280;60655;52.182;4.474;2023-09-07T03:18:52;101843.47;;;19.28;90.99
72612;BME280;60655;52.182;4.474;2023-09-07T03:20:55;101841.84;;;19.27;90.92
72612;BME280;60655;52.182;4.474;2023-09-07T03:22:56;101840.22;;;19.26;90.92
72612;BME280;60655;52.182;4.474;2023-09-07T03:24:57;101843.31;;;19.18;91.49
72612;BME280;60655;52.182;4.474;2023-09-07T03:26:58;101836.31;;;19.17;91.71
72612;BME280;60655;52.182;4.474;2023-09-07T03:28:59;101844.16;;;19.18;91.72
72612;BME280;60655;52.182;4.474;2023-09-07T03:31:00;101838.34;;;19.10;92.01
72612;BME280;60655;52.182;4.474;2023-09-07T03:33:01;101831.34;;;19.09;92.26
72612;BME280;60655;52.182;4.474;2023-09-07T03:35:04;101834.28;;;19.07;92.31
72612;BME280;60655;52.182;4.474;2023-09-07T03:37:09;101835.34;;;19.06;92.33
72612;BME280;60655;52.182;4.474;2023-09-07T03:39:12;101839.91;;;19.06;92.46
72612;BME280;60655;52.182;4.474;2023-09-07T03:41:13;101835.53;;;19.00;92.95
72612;BME280;60655;52.182;4.474;2023-09-07T03:43:14;101837.34;;;18.94;93.18
72612;BME280;60655;52.182;4.474;2023-09-07T03:45:15;101839.47;;;18.92;93.36
72612;BME280;60655;52.182;4.474;2023-09-07T03:47:17;101839.47;;;18.92;93.28
72612;BME280;60655;52.182;4.474;2023-09-07T03:49:18;101840.53;;;18.91;93.28
72612;BME280;60655;52.182;4.474;2023-09-07T03:51:19;101834.25;;;18.85;93.37
72612;BME280;60655;52.182;4.474;2023-09-07T03:53:20;101839.13;;;18.88;92.83
72612;BME280;60655;52.182;4.474;2023-09-07T03:55:21;101844.53;;;18.88;92.33
72612;BME280;60655;52.182;4.474;2023-09-07T03:57:23;101843.63;;;18.83;92.67
72612;BME280;60655;52.182;4.474;2023-09-07T03:59:27;101838.91;;;18.73;92.97
72612;BME280;60655;52.182;4.474;2023-09-07T04:01:28;101846.66;;;18.70;93.02
72612;BME280;60655;52.182;4.474;2023-09-07T04:03:29;101847.16;;;18.67;92.89
72612;BME280;60655;52.182;4.474;2023-09-07T04:05:30;101846.25;;;18.61;92.77
72612;BME280;60655;52.182;4.474;2023-09-07T04:07:31;101846.00;;;18.63;92.42
72612;BME280;60655;52.182;4.474;2023-09-07T04:09:33;101840.50;;;18.58;92.35
72612;BME280;60655;52.182;4.474;2023-09-07T04:11:34;101843.19;;;18.58;92.39
72612;BME280;60655;52.182;4.474;2023-09-07T04:13:35;101836.03;;;18.46;92.15
72612;BME280;60655;52.182;4.474;2023-09-07T04:15:43;101851.63;;;18.44;92.58
72612;BME280;60655;52.182;4.474;2023-09-07T04:17:45;101857.72;;;18.40;92.67
72612;BME280;60655;52.182;4.474;2023-09-07T04:19:46;101854.13;;;18.34;92.71
72612;BME280;60655;52.182;4.474;2023-09-07T04:21:47;101856.22;;;18.32;92.82
72612;BME280;60655;52.182;4.474;2023-09-07T04:23:48;101860.56;;;18.33;92.30
72612;BME280;60655;52.182;4.474;2023-09-07T04:25:49;101862.16;;;18.17;93.18
72612;BME280;60655;52.182;4.474;2023-09-07T04:27:50;101863.22;;;18.16;93.25
72612;BME280;60655;52.182;4.474;2023-09-07T04:29:51;101857.50;;;18.13;93.24
72612;BME280;60655;52.182;4.474;2023-09-07T04:31:52;101856.13;;;18.10;93.73
72612;BME280;60655;52.182;4.474;2023-09-07T04:33:53;101840.38;;;18.02;93.60
72612;BME280;60655;52.182;4.474;2023-09-07T04:35:54;101863.06;;;18.23;93.58
72612;BME280;60655;52.182;4.474;2023-09-07T04:37:56;101862.81;;;18.25;93.43
72612;BME280;60655;52.182;4.474;2023-09-07T04:39:57;101863.06;;;18.23;93.76
72612;BME280;60655;52.182;4.474;2023-09-07T04:41:57;101858.16;;;18.20;94.36
72612;BME280;60655;52.182;4.474;2023-09-07T04:43:58;101863.06;;;18.23;94.56
72612;BME280;60655;52.182;4.474;2023-09-07T04:45:59;101859.97;;;18.14;94.65
72612;BME280;60655;52.182;4.474;2023-09-07T04:48:00;101866.28;;;18.08;94.77
72612;BME280;60655;52.182;4.474;2023-09-07T04:50:01;101867.50;;;18.01;94.90
72612;BME280;60655;52.182;4.474;2023-09-07T04:52:02;101871.81;;;18.02;94.67
72612;BME280;60655;52.182;4.474;2023-09-07T04:54:03;101876.03;;;17.98;94.61
72612;BME280;60655;52.182;4.474;2023-09-07T04:56:06;101878.38;;;17.94;95.04
72612;BME280;60655;52.182;4.474;2023-09-07T04:58:07;101874.75;;;18.00;94.58
72612;BME280;60655;52.182;4.474;2023-09-07T05:00:08;101880.84;;;17.96;95.46
72612;BME280;60655;52.182;4.474;2023-09-07T05:02:12;101882.94;;;17.94;95.57
72612;BME280;60655;52.182;4.474;2023-09-07T05:04:12;101878.97;;;17.96;95.23
72612;BME280;60655;52.182;4.474;2023-09-07T05:06:13;101877.81;;;17.92;95.00
72612;BME280;60655;52.182;4.474;2023-09-07T05:08:14;101877.09;;;17.97;94.80
72612;BME280;60655;52.182;4.474;2023-09-07T05:10:16;101890.63;;;18.02;94.30
72612;BME280;60655;52.182;4.474;2023-09-07T05:12:17;101892.97;;;17.98;94.36
72612;BME280;60655;52.182;4.474;2023-09-07T05:14:19;101894.50;;;17.94;94.99
72612;BME280;60655;52.182;4.474;2023-09-07T05:16:20;101887.75;;;17.92;95.19
72612;BME280;60655;52.182;4.474;2023-09-07T05:18:21;101884.81;;;17.93;94.79
72612;BME280;60655;52.182;4.474;2023-09-07T05:20:23;101892.34;;;17.79;95.23
72612;BME280;60655;52.182;4.474;2023-09-07T05:22:24;101892.13;;;17.81;95.14
72612;BME280;60655;52.182;4.474;2023-09-07T05:24:26;101887.44;;;17.76;95.06
72612;BME280;60655;52.182;4.474;2023-09-07T05:26:27;101891.06;;;17.82;95.35
72612;BME280;60655;52.182;4.474;2023-09-07T05:28:29;101895.50;;;17.88;94.94
72612;BME280;60655;52.182;4.474;2023-09-07T05:30:30;101889.53;;;17.86;94.88
72612;BME280;60655;52.182;4.474;2023-09-07T05:32:31;101882.53;;;17.85;95.20
72612;BME280;60655;52.182;4.474;2023-09-07T05:34:32;101898.84;;;17.95;94.98
72612;BME280;60655;52.182;4.474;2023-09-07T05:36:33;101902.44;;;18.01;95.00
72612;BME280;60655;52.182;4.474;2023-09-07T05:38:34;101889.44;;;18.09;95.16
72612;BME280;60655;52.182;4.474;2023-09-07T05:40:39;101896.63;;;18.20;94.99
72612;BME280;60655;52.182;4.474;2023-09-07T05:42:41;101893.66;;;18.34;94.94
72612;BME280;60655;52.182;4.474;2023-09-07T05:44:42;101891.16;;;18.44;94.77
72612;BME280;60655;52.182;4.474;2023-09-07T05:46:43;101898.22;;;18.50;94.69
72612;BME280;60655;52.182;4.474;2023-09-07T05:48:44;101885.19;;;18.42;95.24
72612;BME280;60655;52.182;4.474;2023-09-07T05:50:45;101885.28;;;18.47;95.18
72612;BME280;60655;52.182;4.474;2023-09-07T05:52:46;101891.56;;;18.52;95.43
72612;BME280;60655;52.182;4.474;2023-09-07T05:54:47;101892.47;;;18.58;95.28
72612;BME280;60655;52.182;4.474;2023-09-07T05:56:48;101894.06;;;18.71;94.62
72612;BME280;60655;52.182;4.474;2023-09-07T05:58:49;101892.34;;;18.81;94.02
72612;BME280;60655;52.182;4.474;2023-09-07T06:00:50;101889.63;;;18.81;94.03
72612;BME280;60655;52.182;4.474;2023-09-07T06:02:51;101895.09;;;18.86;93.95
72612;BME280;60655;52.182;4.474;2023-09-07T06:04:52;101894.38;;;18.91;93.68
72612;BME280;60655;52.182;4.474;2023-09-07T06:06:54;101901.56;;;19.02;92.80
72612;BME280;60655;52.182;4.474;2023-09-07T06:08:55;101906.59;;;19.15;92.52
72612;BME280;60655;52.182;4.474;2023-09-07T06:10:55;101906.44;;;19.22;91.52
72612;BME280;60655;52.182;4.474;2023-09-07T06:12:57;101898.19;;;19.29;91.66
72612;BME280;60655;52.182;4.474;2023-09-07T06:14:59;101904.50;;;19.39;90.82
72612;BME280;60655;52.182;4.474;2023-09-07T06:17:01;101918.38;;;19.48;90.64
72612;BME280;60655;52.182;4.474;2023-09-07T06:19:02;101907.44;;;19.54;90.25
72612;BME280;60655;52.182;4.474;2023-09-07T06:21:04;101917.25;;;19.61;90.09
72612;BME280;60655;52.182;4.474;2023-09-07T06:23:06;101912.13;;;19.64;89.64
72612;BME280;60655;52.182;4.474;2023-09-07T06:25:07;101923.31;;;19.73;89.65
72612;BME280;60655;52.182;4.474;2023-09-07T06:27:08;101916.19;;;19.83;89.03
72612;BME280;60655;52.182;4.474;2023-09-07T06:29:09;101916.56;;;19.92;88.35
72612;BME280;60655;52.182;4.474;2023-09-07T06:31:10;101921.28;;;20.07;87.96
72612;BME280;60655;52.182;4.474;2023-09-07T06:33:11;101927.81;;;20.11;87.75
72612;BME280;60655;52.182;4.474;2023-09-07T06:35:12;101919.78;;;20.16;87.53
72612;BME280;60655;52.182;4.474;2023-09-07T06:37:13;101914.47;;;20.26;86.80
72612;BME280;60655;52.182;4.474;2023-09-07T06:39:14;101922.06;;;20.29;86.96
72612;BME280;60655;52.182;4.474;2023-09-07T06:41:15;101913.78;;;20.36;86.55
72612;BME280;60655;52.182;4.474;2023-09-07T06:43:16;101913.09;;;20.45;85.99
72612;BME280;60655;52.182;4.474;2023-09-07T06:45:17;101919.63;;;20.49;85.98
72612;BME280;60655;52.182;4.474;2023-09-07T06:47:18;101923.16;;;20.55;85.49
72612;BME280;60655;52.182;4.474;2023-09-07T06:49:19;101917.44;;;20.51;85.72
72612;BME280;60655;52.182;4.474;2023-09-07T06:51:20;101925.66;;;20.62;85.45
72612;BME280;60655;52.182;4.474;2023-09-07T06:53:21;101924.28;;;20.59;85.16
72612;BME280;60655;52.182;4.474;2023-09-07T06:55:22;101921.72;;;20.74;84.32
72612;BME280;60655;52.182;4.474;2023-09-07T06:57:23;101917.41;;;20.73;83.26
72612;BME280;60655;52.182;4.474;2023-09-07T06:59:24;101919.03;;;20.79;83.25
72612;BME280;60655;52.182;4.474;2023-09-07T07:01:25;101916.06;;;20.76;83.01
72612;BME280;60655;52.182;4.474;2023-09-07T07:03:27;101911.81;;;20.85;83.41
72612;BME280;60655;52.182;4.474;2023-09-07T07:05:28;101917.81;;;20.92;83.00
72612;BME280;60655;52.182;4.474;2023-09-07T07:07:30;101918.91;;;20.96;82.99
72612;BME280;60655;52.182;4.474;2023-09-07T07:09:31;101912.72;;;20.96;82.75
72612;BME280;60655;52.182;4.474;2023-09-07T07:11:32;101927.38;;;21.05;82.08
72612;BME280;60655;52.182;4.474;2023-09-07T07:13:33;101923.59;;;21.11;82.65
72612;BME280;60655;52.182;4.474;2023-09-07T07:15:35;101916.34;;;21.16;82.34
72612;BME280;60655;52.182;4.474;2023-09-07T07:17:36;101916.66;;;21.20;81.92
72612;BME280;60655;52.182;4.474;2023-09-07T07:19:37;101916.47;;;21.27;81.79
72612;BME280;60655;52.182;4.474;2023-09-07T07:21:38;101921.66;;;21.33;81.70
72612;BME280;60655;52.182;4.474;2023-09-07T07:23:39;101916.81;;;21.45;81.09
72612;BME280;60655;52.182;4.474;2023-09-07T07:25:40;101901.72;;;21.49;80.85
72612;BME280;60655;52.182;4.474;2023-09-07T07:27:41;101900.94;;;21.54;79.62
72612;BME280;60655;52.182;4.474;2023-09-07T07:29:42;101908.53;;;21.62;79.09
72612;BME280;60655;52.182;4.474;2023-09-07T07:31:43;101911.50;;;21.66;79.26
72612;BME280;60655;52.182;4.474;2023-09-07T07:33:46;101916.44;;;21.74;78.10
72612;BME280;60655;52.182;4.474;2023-09-07T07:35:48;101918.06;;;21.80;78.29
72612;BME280;60655;52.182;4.474;2023-09-07T07:37:49;101915.41;;;21.85;77.95
72612;BME280;60655;52.182;4.474;2023-09-07T07:39:51;101916.53;;;21.94;77.63
72612;BME280;60655;52.182;4.474;2023-09-07T07:41:52;101916.28;;;22.01;77.28
72612;BME280;60655;52.182;4.474;2023-09-07T07:43:53;101915.47;;;22.05;76.34
72612;BME280;60655;52.182;4.474;2023-09-07T07:45:54;101906.03;;;22.08;76.25
72612;BME280;60655;52.182;4.474;2023-09-07T07:47:55;101907.94;;;22.17;76.53
72612;BME280;60655;52.182;4.474;2023-09-07T07:49:56;101907.97;;;22.22;76.01
72612;BME280;60655;52.182;4.474;2023-09-07T07:51:57;101902.28;;;22.29;75.68
72612;BME280;60655;52.182;4.474;2023-09-07T07:53:59;101900.41;;;22.40;75.70
72612;BME280;60655;52.182;4.474;2023-09-07T07:56:00;101906.38;;;22.47;74.76
72612;BME280;60655;52.182;4.474;2023-09-07T07:58:01;101897.72;;;22.50;75.13
72612;BME280;60655;52.182;4.474;2023-09-07T08:00:03;101887.41;;;22.57;73.57
72612;BME280;60655;52.182;4.474;2023-09-07T08:02:06;101897.16;;;22.63;73.26
72612;BME280;60655;52.182;4.474;2023-09-07T08:04:08;101879.28;;;22.52;73.22
72612;BME280;60655;52.182;4.474;2023-09-07T08:06:10;101891.22;;;22.71;73.01
72612;BME280;60655;52.182;4.474;2023-09-07T08:08:11;101885.25;;;22.74;71.93
72612;BME280;60655;52.182;4.474;2023-09-07T08:10:12;101896.13;;;22.79;72.10
72612;BME280;60655;52.182;4.474;2023-09-07T08:12:13;101886.88;;;22.85;72.44
72612;BME280;60655;52.182;4.474;2023-09-07T08:14:14;101900.97;;;22.93;72.50
72612;BME280;60655;52.182;4.474;2023-09-07T08:16:15;101886.88;;;23.06;70.76
72612;BME280;60655;52.182;4.474;2023-09-07T08:18:16;101893.06;;;23.16;71.25
72612;BME280;60655;52.182;4.474;2023-09-07T08:20:17;101892.78;;;23.23;69.53
72612;BME280;60655;52.182;4.474;2023-09-07T08:22:18;101894.94;;;23.31;70.43
72612;BME280;60655;52.182;4.474;2023-09-07T08:24:19;101886.25;;;23.34;69.36
72612;BME280;60655;52.182;4.474;2023-09-07T08:26:20;101880.84;;;23.34;69.89
72612;BME280;60655;52.182;4.474;2023-09-07T08:28:21;101886.47;;;23.53;69.85
72612;BME280;60655;52.182;4.474;2023-09-07T08:30:22;101874.25;;;23.45;68.98
72612;BME280;60655;52.182;4.474;2023-09-07T08:32:25;101878.88;;;23.55;68.85
72612;BME280;60655;52.182;4.474;2023-09-07T08:34:26;101878.56;;;23.67;68.14
72612;BME280;60655;52.182;4.474;2023-09-07T08:36:27;101874.16;;;23.76;67.60
72612;BME280;60655;52.182;4.474;2023-09-07T08:38:30;101870.06;;;23.83;66.90
72612;BME280;60655;52.182;4.474;2023-09-07T08:40:31;101875.22;;;23.85;65.79
72612;BME280;60655;52.182;4.474;2023-09-07T08:42:36;101871.41;;;23.86;65.51
72612;BME280;60655;52.182;4.474;2023-09-07T08:44:39;101874.91;;;23.92;65.85
72612;BME280;60655;52.182;4.474;2023-09-07T08:46:43;101872.41;;;24.00;66.08
72612;BME280;60655;52.182;4.474;2023-09-07T08:48:45;101875.91;;;24.06;65.79
72612;BME280;60655;52.182;4.474;2023-09-07T08:50:47;101873.41;;;24.14;65.32
72612;BME280;60655;52.182;4.474;2023-09-07T08:52:52;101874.22;;;24.15;64.50
72612;BME280;60655;52.182;4.474;2023-09-07T08:54:54;101876.34;;;24.23;64.82
72612;BME280;60655;52.182;4.474;2023-09-07T08:56:57;101871.19;;;24.21;64.30
72612;BME280;60655;52.182;4.474;2023-09-07T08:58:58;101870.34;;;24.26;65.43
72612;BME280;60655;52.182;4.474;2023-09-07T09:00:59;101866.22;;;24.34;64.88
72612;BME280;60655;52.182;4.474;2023-09-07T09:03:00;101870.75;;;24.48;64.35
72612;BME280;60655;52.182;4.474;2023-09-07T09:05:01;101856.88;;;24.50;64.39
72612;BME280;60655;52.182;4.474;2023-09-07T09:07:03;101848.38;;;24.56;64.02
72612;BME280;60655;52.182;4.474;2023-09-07T09:09:04;101866.25;;;24.63;64.35
72612;BME280;60655;52.182;4.474;2023-09-07T09:11:08;101864.88;;;24.65;63.21
72612;BME280;60655;52.182;4.474;2023-09-07T09:13:09;101866.50;;;24.66;63.63
72612;BME280;60655;52.182;4.474;2023-09-07T09:15:11;101868.09;;;24.72;63.81
72612;BME280;60655;52.182;4.474;2023-09-07T09:17:13;101866.44;;;24.76;63.68
72612;BME280;60655;52.182;4.474;2023-09-07T09:19:15;101868.22;;;24.86;63.24
72612;BME280;60655;52.182;4.474;2023-09-07T09:21:16;101862.16;;;24.94;63.14
72612;BME280;60655;52.182;4.474;2023-09-07T09:23:17;101861.91;;;24.96;61.32
72612;BME280;60655;52.182;4.474;2023-09-07T09:25:18;101867.59;;;24.99;60.56
72612;BME280;60655;52.182;4.474;2023-09-07T09:27:20;101873.78;;;25.05;60.87
72612;BME280;60655;52.182;4.474;2023-09-07T09:29:22;101865.06;;;25.08;61.00
72612;BME280;60655;52.182;4.474;2023-09-07T09:31:24;101853.53;;;25.16;60.23
72612;BME280;60655;52.182;4.474;2023-09-07T09:33:25;101859.94;;;25.25;60.17
72612;BME280;60655;52.182;4.474;2023-09-07T09:35:27;101864.47;;;25.35;60.03
72612;BME280;60655;52.182;4.474;2023-09-07T09:37:28;101868.75;;;25.41;59.52
72612;BME280;60655;52.182;4.474;2023-09-07T09:39:29;101865.84;;;25.56;59.33
72612;BME280;60655;52.182;4.474;2023-09-07T09:41:32;101853.53;;;25.64;59.35
72612;BME280;60655;52.182;4.474;2023-09-07T09:43:34;101865.88;;;25.75;59.68
72612;BME280;60655;52.182;4.474;2023-09-07T09:45:35;101869.06;;;25.82;58.54
72612;BME280;60655;52.182;4.474;2023-09-07T09:47:41;101868.84;;;25.78;58.99
72612;BME280;60655;52.182;4.474;2023-09-07T09:49:43;101871.13;;;25.90;58.61
72612;BME280;60655;52.182;4.474;2023-09-07T09:51:44;101874.78;;;25.99;58.52
72612;BME280;60655;52.182;4.474;2023-09-07T09:53:46;101874.13;;;26.07;58.17
72612;BME280;60655;52.182;4.474;2023-09-07T09:55:48;101873.19;;;26.17;57.67
72612;BME280;60655;52.182;4.474;2023-09-07T09:57:50;101863.09;;;26.17;58.28
72612;BME280;60655;52.182;4.474;2023-09-07T09:59:51;101875.44;;;26.29;57.47
72612;BME280;60655;52.182;4.474;2023-09-07T10:01:54;101863.16;;;26.31;56.62
72612;BME280;60655;52.182;4.474;2023-09-07T10:03:56;101865.22;;;26.39;57.47
72612;BME280;60655;52.182;4.474;2023-09-07T10:06:10;101864.25;;;26.49;56.35
72612;BME280;60655;52.182;4.474;2023-09-07T10:08:13;101858.44;;;26.55;56.91
72612;BME280;60655;52.182;4.474;2023-09-07T10:10:15;101864.59;;;26.61;56.22
72612;BME280;60655;52.182;4.474;2023-09-07T10:12:27;101865.31;;;26.67;55.95
72612;BME280;60655;52.182;4.474;2023-09-07T10:14:40;101858.28;;;26.79;55.71
72612;BME280;60655;52.182;4.474;2023-09-07T10:16:46;101855.56;;;26.79;55.58
72612;BME280;60655;52.182;4.474;2023-09-07T10:18:48;101861.31;;;26.91;56.02
72612;BME280;60655;52.182;4.474;2023-09-07T10:20:58;101854.19;;;26.96;55.59
72612;BME280;60655;52.182;4.474;2023-09-07T10:23:03;101854.09;;;27.01;55.34
72612;BME280;60655;52.182;4.474;2023-09-07T10:25:04;101845.91;;;27.14;54.66
72612;BME280;60655;52.182;4.474;2023-09-07T10:27:08;101846.09;;;27.18;54.17
72612;BME280;60655;52.182;4.474;2023-09-07T10:29:11;101852.16;;;27.29;54.49
72612;BME280;60655;52.182;4.474;2023-09-07T10:31:19;101850.47;;;27.33;53.72
72612;BME280;60655;52.182;4.474;2023-09-07T10:33:21;101845.50;;;27.35;52.67
72612;BME280;60655;52.182;4.474;2023-09-07T10:35:22;101847.41;;;27.48;53.79
72612;BME280;60655;52.182;4.474;2023-09-07T10:37:28;101850.44;;;27.60;51.96